Clinton, MO (64735)

9:46 PM CDT on July 26, 2016 (GMT -0500)
Clinton Memorial | | Change Station

Elev 823 ft 38.36 °N, 93.68 °W | Updated 11 minutes ago

Partly Cloudy
Partly Cloudy
75 °F
Feels Like 75 °F
N
0
Wind Variable Wind from North

Today
High -- | Low -- °F
--% Chance of Precip.
Yesterday
High -- | Low -- °F
Precip. -- in
Pressure 29.99 in
Visibility 10.0 miles
Clouds Few 3700 ft
Dew Point 72 °F
Humidity 89%
Rainfall 0.00 in
Snow Depth Not available.
6:12 AM 8:30 PM
Waning Gibbous, 48% visible
METAR KGLY 270235Z AUTO 00000KT 10SM FEW037 24/22 A2999 RMK AO2
Pressure 29.99 in
Visibility 10.0 miles
Clouds Few 3700 ft
Dew Point 72 °F
Humidity 89%
Rainfall 0.00 in
Snow Depth Not available.
6:12 AM 8:30 PM
Waning Gibbous, 48% visible
METAR KGLY 270235Z AUTO 00000KT 10SM FEW037 24/22 A2999 RMK AO2

10-Day Weather Forecast

Almanac

Astronomy

Jul. 26, 2016 Rise Set
Actual Time
Civil Twilight
Nautical Twilight
Astronomical Twilight
Moon
Length of Visible Light
Length of Day
Tomorrow will be .
, % of the Moon is Illuminated

Today's Extremes

State Highs State Lows

Community

WunderPhotos

Upload Photos

1,927,784 photos uploaded!

WunderBlog® & News

Nearby

Air Quality

  Air Quality AQ Index Pollutant
Not available.

Snow Depth

Station Depth Elevation

Earthquake Activity

City Distance Mag. Time & Date
Minimum magnitude displayed is 2.5.

Coastal Water Temperatures

Place Temperature

Stations

Nearby Weather Stations

Station Location Temp. Windchill Dew Point Humidity Wind Precip. Elev Updated Type
                   

Watches & Warnings

There are currently no watches in effect.